Westlake, OH (44145)

9:16 AM EDT on June 28, 2017 (GMT -0400)
Dover & Center Ridge | | Change Station

Elev 965 ft 41.45 °N, 81.92 °W | Updated 51 seconds ago

Clear
Clear
68.9 °F
Feels Like 68.9 °F
N
3.0
Wind Variable Wind from South

Today
High -- | Low -- °F
--% Chance of Precip.
Yesterday
High -- | Low -- °F
Precip. -- in
Pressure 30.18 in
Visibility 10.0 miles
Clouds Clear
Dew Point 50 °F
Humidity 51%
Rainfall 0.00 in
Snow Depth Not available.
5:56 AM 9:05 PM
Waxing Crescent, 25% visible
METAR KCLE 281251Z 23006KT 10SM CLR 19/11 A3018 RMK AO2 SLP218 T01940106
Pressure 30.18 in
Visibility 10.0 miles
Clouds Clear
Dew Point 50 °F
Humidity 51%
Rainfall 0.00 in
Snow Depth Not available.
5:56 AM 9:05 PM
Waxing Crescent, 25% visible
METAR KCLE 281251Z 23006KT 10SM CLR 19/11 A3018 RMK AO2 SLP218 T01940106

Get Severe Weather Alerts

Thanks for signing up!

Be on the lookout for a verification email in your inbox.

You'll start receiving the daily forecast at 6 AM.

×

10-Day Weather Forecast

Almanac

Astronomy

Jun. 28, 2017 Rise Set
Actual Time
Civil Twilight
Nautical Twilight
Astronomical Twilight
Moon
Length of Visible Light
Length of Day
Tomorrow will be .
, % of the Moon is Illuminated

Today's Extremes

State Highs State Lows

Community

WunderPhotos

Category 6

Welcome to Category 6. This is the collective home for Weather Underground's featured writeups by Dr. Jeff Masters (right), Bob Henson (left), Chris Burt, and other regular contributors.

Nearby

Air Quality

  Air Quality AQ Index Pollutant
Not available.

Snow Depth

Station Depth Elevation

Earthquake Activity

City Distance Mag. Time & Date
Minimum magnitude displayed is 2.5.

Coastal Water Temperatures

Place Temperature

Stations

Nearby Weather Stations

Station Location Temp. Windchill Dew Point Humidity Wind Precip. Elev Updated Type
                   

Watches & Warnings

There are currently no watches in effect.